Time;durP1;ratioP1;P1;durP2;ratioP2;P2;SDS_P1;SDS_P2;PMS_P1;PMS_P2;Temp;Humidity;BMP_temperature;BMP_pressure;BME280_temperature;BME280_humidity;BME280_pressure;Samples;Min_cycle;Max_cycle;Signal;HPM_P1;HPM_P2
2024/03/15 00:01:02;;;;;;;5.32;2.00;;;9.80;99.90;;;;;;5040113;28;20060;-62
2024/03/15 00:03:29;;;;;;;3.38;1.63;;;9.80;99.90;;;;;;5020821;28;20510;-61
2024/03/15 00:05:57;;;;;;;6.32;1.77;;;9.90;99.90;;;;;;5041481;28;20049;-62
2024/03/15 00:08:24;;;;;;;4.55;1.80;;;9.90;99.90;;;;;;5040321;28;20190;-61
2024/03/15 00:10:51;;;;;;;2.15;1.40;;;10.00;99.90;;;;;;5038938;28;20056;-62
2024/03/15 00:13:18;;;;;;;2.22;1.63;;;10.00;99.90;;;;;;5040748;28;20045;-62
2024/03/15 00:15:45;;;;;;;2.08;1.30;;;10.00;99.90;;;;;;5044171;28;20052;-62
2024/03/15 00:18:12;;;;;;;4.15;1.63;;;10.10;99.90;;;;;;5039263;28;20037;-62
2024/03/15 00:20:39;;;;;;;4.88;1.90;;;10.10;99.90;;;;;;5040983;28;20056;-62
2024/03/15 00:23:07;;;;;;;2.03;1.23;;;10.10;99.90;;;;;;5039236;28;20128;-61
2024/03/15 00:25:34;;;;;;;1.88;1.08;;;10.20;99.90;;;;;;5042689;28;20056;-62
2024/03/15 00:28:02;;;;;;;2.50;1.33;;;10.30;99.90;;;;;;5040369;28;20045;-62
2024/03/15 00:30:28;;;;;;;4.22;1.30;;;10.40;99.90;;;;;;5043909;22;20585;-63
2024/03/15 00:32:55;;;;;;;3.10;1.48;;;10.50;99.90;;;;;;5010506;28;20085;-63
2024/03/15 00:35:22;;;;;;;2.03;1.40;;;10.60;99.90;;;;;;5019516;28;20049;-62
2024/03/15 00:37:49;;;;;;;2.92;1.38;;;10.60;99.90;;;;;;5003201;28;20057;-63
2024/03/15 00:40:16;;;;;;;1.73;1.10;;;10.60;99.90;;;;;;5003514;28;20046;-63
2024/03/15 00:42:43;;;;;;;9.23;1.50;;;10.60;99.90;;;;;;5001828;28;20053;-63
2024/03/15 00:45:10;;;;;;;2.33;1.13;;;10.60;99.90;;;;;;4994379;28;20043;-63
2024/03/15 00:47:37;;;;;;;2.45;1.40;;;10.60;99.90;;;;;;5000839;28;20046;-63
2024/03/15 00:50:05;;;;;;;2.67;1.30;;;10.60;99.90;;;;;;5004659;28;20514;-63
2024/03/15 00:52:32;;;;;;;2.17;1.30;;;10.60;99.90;;;;;;4998872;28;20050;-63
2024/03/15 00:54:59;;;;;;;6.97;1.80;;;10.60;99.90;;;;;;4993731;28;20155;-62
2024/03/15 00:57:25;;;;;;;5.07;1.60;;;10.70;99.90;;;;;;4999736;28;20758;-63
2024/03/15 00:59:52;;;;;;;2.88;1.10;;;10.60;99.90;;;;;;4999563;28;20586;-63
2024/03/15 01:02:19;;;;;;;3.90;1.30;;;10.60;99.90;;;;;;4995480;28;20610;-62
2024/03/15 01:04:46;;;;;;;2.58;1.08;;;10.60;99.90;;;;;;5003169;28;20046;-63
2024/03/15 01:07:13;;;;;;;1.85;1.23;;;10.60;99.90;;;;;;4992839;28;20108;-63
2024/03/15 01:09:40;;;;;;;2.72;1.52;;;10.50;99.90;;;;;;4998734;28;20104;-62
2024/03/15 01:12:07;;;;;;;3.55;1.10;;;10.40;99.90;;;;;;4996903;28;20096;-63
2024/03/15 01:14:34;;;;;;;6.43;1.17;;;10.40;99.90;;;;;;4995002;28;20050;-63
2024/03/15 01:17:01;;;;;;;3.05;1.42;;;10.40;99.90;;;;;;4999625;28;20498;-63
2024/03/15 01:19:32;;;;;;;2.97;1.10;;;10.40;99.90;;;;;;4991149;28;20058;-63
2024/03/15 01:22:00;;;;;;;3.67;1.63;;;10.40;99.90;;;;;;4996605;28;20054;-63
2024/03/15 01:24:28;;;;;;;1.50;1.10;;;10.40;99.90;;;;;;4994031;28;20455;-63
2024/03/15 01:26:56;;;;;;;2.83;1.30;;;10.50;99.90;;;;;;4976107;28;20046;-63
2024/03/15 01:29:24;;;;;;;4.57;1.38;;;10.50;99.90;;;;;;4998429;28;20116;-63
2024/03/15 01:31:51;;;;;;;1.95;1.13;;;10.50;99.90;;;;;;4997294;28;20042;-63
2024/03/15 01:34:18;;;;;;;3.38;0.98;;;10.60;99.90;;;;;;5002086;28;20049;-63
2024/03/15 01:36:44;;;;;;;2.88;1.00;;;10.70;99.90;;;;;;4998012;28;20058;-63
2024/03/15 01:39:11;;;;;;;2.28;0.98;;;10.90;99.90;;;;;;5000316;28;20506;-63
2024/03/15 01:41:38;;;;;;;3.03;1.20;;;11.00;99.90;;;;;;4993171;28;20137;-63
2024/03/15 01:44:05;;;;;;;2.90;1.20;;;11.00;99.90;;;;;;4993290;28;20042;-63
2024/03/15 01:46:32;;;;;;;2.28;1.23;;;11.00;99.90;;;;;;4999716;28;20095;-63
2024/03/15 01:48:59;;;;;;;2.22;1.17;;;11.20;99.90;;;;;;4993527;28;20046;-63
2024/03/15 01:51:27;;;;;;;2.28;1.30;;;11.20;99.90;;;;;;4999050;28;20046;-63
2024/03/15 01:53:54;;;;;;;5.25;1.77;;;11.20;99.90;;;;;;4995115;28;20049;-63
2024/03/15 01:56:22;;;;;;;2.15;1.10;;;11.40;99.90;;;;;;4995801;28;20458;-63
2024/03/15 01:58:49;;;;;;;3.85;1.75;;;11.50;99.90;;;;;;4994745;28;20717;-63
2024/03/15 02:01:16;;;;;;;1.23;0.90;;;11.50;99.90;;;;;;4995119;28;20468;-63
2024/03/15 02:03:46;;;;;;;2.13;1.23;;;11.60;99.90;;;;;;5000690;28;20038;-63
2024/03/15 02:06:13;;;;;;;2.83;1.15;;;11.60;99.90;;;;;;4992812;28;20042;-63
2024/03/15 02:08:41;;;;;;;2.45;1.00;;;11.70;99.90;;;;;;4994557;28;20402;-63
2024/03/15 02:11:07;;;;;;;4.28;1.25;;;11.60;99.90;;;;;;4993836;28;20446;-63
2024/03/15 02:13:34;;;;;;;4.68;1.30;;;11.70;99.90;;;;;;4997154;28;20048;-63
2024/03/15 02:16:01;;;;;;;1.90;1.17;;;11.70;99.90;;;;;;4995338;28;20045;-63
2024/03/15 02:18:28;;;;;;;1.33;1.00;;;11.70;99.90;;;;;;4995403;28;20053;-63
2024/03/15 02:20:55;;;;;;;1.90;1.10;;;11.70;99.90;;;;;;4995181;28;20051;-63
2024/03/15 02:23:22;;;;;;;2.58;1.20;;;11.80;99.90;;;;;;4988304;28;20626;-63
2024/03/15 02:25:52;;;;;;;2.08;1.27;;;11.90;99.90;;;;;;4996714;28;20045;-63
2024/03/15 02:28:22;;;;;;;3.63;2.13;;;12.10;99.90;;;;;;4994126;28;20046;-63
2024/03/15 02:30:49;;;;;;;;;;;12.20;99.90;;;;;;4990269;28;20046;-63
2024/03/15 02:33:15;;;;;;;2.72;1.13;;;12.30;99.90;;;;;;4995894;28;19925;-63
2024/03/15 02:35:43;;;;;;;1.88;1.15;;;12.30;99.90;;;;;;4997373;28;20089;-63
2024/03/15 02:38:10;;;;;;;3.45;2.13;;;12.40;99.90;;;;;;4994761;28;20108;-63
2024/03/15 02:40:37;;;;;;;3.78;1.50;;;12.40;99.90;;;;;;4992989;28;20051;-63
2024/03/15 02:43:04;;;;;;;1.45;1.10;;;12.40;99.90;;;;;;4990920;28;20475;-62
2024/03/15 02:45:30;;;;;;;1.15;1.02;;;12.60;99.90;;;;;;4991837;28;20137;-63
2024/03/15 02:47:58;;;;;;;2.17;1.10;;;12.70;99.90;;;;;;4994333;28;20045;-63
2024/03/15 02:50:25;;;;;;;1.83;1.10;;;12.80;99.90;;;;;;4995943;28;20498;-62
2024/03/15 02:52:52;;;;;;;1.27;1.00;;;12.80;99.90;;;;;;4991774;28;20093;-63
2024/03/15 02:55:19;;;;;;;3.47;1.20;;;12.80;99.90;;;;;;4991483;28;20453;-63
2024/03/15 02:57:46;;;;;;;2.47;1.40;;;12.90;99.90;;;;;;4990719;28;20128;-63
2024/03/15 03:00:13;;;;;;;4.80;1.42;;;13.00;99.90;;;;;;4996894;28;20056;-63
2024/03/15 03:02:41;;;;;;;2.30;1.20;;;13.00;99.90;;;;;;4995687;28;20054;-63
2024/03/15 03:05:08;;;;;;;3.63;1.20;;;13.00;99.90;;;;;;4994083;28;20042;-63
2024/03/15 03:07:35;;;;;;;2.40;1.17;;;13.00;99.90;;;;;;4990416;28;20054;-63
2024/03/15 03:10:03;;;;;;;2.78;1.30;;;13.00;99.90;;;;;;4993197;28;20105;-63
2024/03/15 03:12:32;;;;;;;3.45;1.40;;;13.00;99.90;;;;;;4987362;28;20618;-63
2024/03/15 03:14:59;;;;;;;2.10;1.33;;;12.90;99.90;;;;;;4993332;28;20046;-63
2024/03/15 03:17:26;;;;;;;1.67;1.20;;;12.90;99.90;;;;;;4992152;28;20058;-63
2024/03/15 03:19:52;;;;;;;2.50;1.25;;;12.90;99.90;;;;;;4992432;28;20054;-63
2024/03/15 03:22:19;;;;;;;1.50;1.05;;;12.90;99.90;;;;;;4992378;28;20557;-63
2024/03/15 03:24:47;;;;;;;1.65;1.10;;;13.00;99.90;;;;;;4991394;28;20053;-63
2024/03/15 03:27:14;;;;;;;2.88;1.35;;;12.90;99.90;;;;;;4992052;28;20137;-63
2024/03/15 03:29:41;;;;;;;2.55;1.55;;;12.90;99.90;;;;;;4997128;28;20158;-63
2024/03/15 03:32:08;;;;;;;2.13;1.23;;;12.90;99.90;;;;;;4992579;28;20069;-63
2024/03/15 03:34:38;;;;;;;;;;;12.80;99.90;;;;;;4993613;28;20636;-63
2024/03/15 03:37:05;;;;;;;4.80;1.20;;;12.80;99.90;;;;;;4992530;28;20554;-62
2024/03/15 03:39:32;;;;;;;4.00;1.45;;;12.80;99.90;;;;;;4993546;28;20062;-63
2024/03/15 03:41:59;;;;;;;3.15;1.20;;;12.80;99.90;;;;;;4990873;28;20042;-63
2024/03/15 03:44:26;;;;;;;2.30;1.50;;;12.80;99.90;;;;;;4998915;28;20038;-63
2024/03/15 03:46:53;;;;;;;3.00;1.33;;;12.80;99.90;;;;;;4994058;28;20112;-63
2024/03/15 03:49:20;;;;;;;2.20;1.10;;;12.70;99.90;;;;;;4990005;28;20082;-63
2024/03/15 03:51:47;;;;;;;4.25;1.42;;;12.70;99.90;;;;;;4991941;28;20045;-63
2024/03/15 03:54:15;;;;;;;1.55;1.13;;;12.70;99.90;;;;;;4990184;28;20521;-63
2024/03/15 03:56:42;;;;;;;2.03;1.10;;;12.70;99.90;;;;;;4996505;28;20046;-63
2024/03/15 03:59:08;;;;;;;2.30;1.30;;;12.70;99.90;;;;;;4997191;28;20046;-63
2024/03/15 04:01:35;;;;;;;1.30;1.00;;;12.70;99.90;;;;;;4993904;28;20050;-63
2024/03/15 04:04:02;;;;;;;2.47;1.38;;;12.70;99.90;;;;;;4994039;28;20042;-63
2024/03/15 04:06:29;;;;;;;2.55;1.13;;;12.70;99.90;;;;;;4996042;28;20061;-63
2024/03/15 04:08:57;;;;;;;2.50;1.33;;;12.60;99.90;;;;;;4993108;28;20494;-63
2024/03/15 04:11:24;;;;;;;7.45;1.63;;;12.60;99.90;;;;;;4997520;28;20037;-63
2024/03/15 04:13:54;;;;;;;2.38;1.40;;;12.70;99.90;;;;;;4994173;28;20426;-63
2024/03/15 04:16:24;;;;;;;3.28;1.30;;;12.70;99.90;;;;;;4994548;28;20120;-63
2024/03/15 04:18:53;;;;;;;2.85;1.65;;;12.60;99.90;;;;;;4994028;28;20050;-63
2024/03/15 04:21:21;;;;;;;2.30;1.50;;;12.60;99.90;;;;;;4990449;28;20079;-63
2024/03/15 04:23:48;;;;;;;3.83;1.20;;;12.50;99.90;;;;;;4993003;28;20137;-63
2024/03/15 04:26:15;;;;;;;3.22;1.48;;;12.50;99.90;;;;;;4995152;28;20038;-63
2024/03/15 04:28:42;;;;;;;3.72;1.40;;;12.50;99.90;;;;;;4990176;28;20050;-63
2024/03/15 04:31:08;;;;;;;6.07;3.00;;;12.60;99.90;;;;;;4993948;28;20049;-63
2024/03/15 04:33:37;;;;;;;3.58;1.83;;;12.60;99.90;;;;;;4995543;28;20827;-63
2024/03/15 04:36:04;;;;;;;3.88;1.75;;;12.60;99.90;;;;;;4993998;28;20070;-63
2024/03/15 04:38:32;;;;;;;2.63;1.50;;;12.50;99.90;;;;;;4992627;28;20142;-63
2024/03/15 04:41:09;;;;;;;5.90;1.85;;;12.40;99.90;;;;;;4987744;28;20050;-63
2024/03/15 04:43:36;;;;;;;2.28;1.50;;;12.40;99.90;;;;;;4989760;28;20047;-63
2024/03/15 04:46:03;;;;;;;2.50;1.20;;;12.30;99.90;;;;;;4997568;28;20088;-63
2024/03/15 04:48:31;;;;;;;3.05;1.67;;;12.20;99.90;;;;;;4990069;28;20050;-63
2024/03/15 04:50:57;;;;;;;3.60;1.77;;;12.00;99.90;;;;;;4990604;28;20046;-63
2024/03/15 04:53:24;;;;;;;3.15;1.58;;;12.00;99.90;;;;;;4993423;28;20041;-63
2024/03/15 04:55:52;;;;;;;2.65;1.50;;;12.00;99.90;;;;;;4993762;28;20042;-63
2024/03/15 04:58:20;;;;;;;5.53;1.85;;;11.90;99.90;;;;;;4998063;28;20042;-63
2024/03/15 05:00:47;;;;;;;3.67;1.27;;;11.80;99.90;;;;;;4990509;28;20124;-63
2024/03/15 05:03:14;;;;;;;5.65;1.63;;;11.70;99.90;;;;;;4990990;28;20145;-63
2024/03/15 05:05:41;;;;;;;2.17;1.30;;;11.80;99.90;;;;;;4997212;28;20391;-62
2024/03/15 05:08:08;;;;;;;2.25;1.50;;;11.70;99.90;;;;;;4987512;28;20100;-63
2024/03/15 05:10:35;;;;;;;2.58;1.40;;;11.70;99.90;;;;;;4986769;28;20685;-63
2024/03/15 05:13:02;;;;;;;3.28;1.67;;;11.50;99.90;;;;;;4992998;28;20049;-63
2024/03/15 05:15:28;;;;;;;3.70;2.08;;;11.40;99.90;;;;;;4989008;28;20050;-63
2024/03/15 05:17:55;;;;;;;8.80;1.70;;;11.50;99.90;;;;;;4994188;28;20149;-63
2024/03/15 05:20:22;;;;;;;4.93;1.75;;;11.50;99.90;;;;;;4997443;28;20053;-63
2024/03/15 05:22:49;;;;;;;3.72;1.58;;;11.40;99.90;;;;;;4989526;28;20527;-63
2024/03/15 05:25:16;;;;;;;3.80;1.70;;;11.40;99.90;;;;;;4993806;28;20053;-63
2024/03/15 05:27:45;;;;;;;3.58;2.30;;;11.30;99.90;;;;;;4989725;28;20397;-63
2024/03/15 05:30:14;;;;;;;5.60;2.20;;;11.40;99.90;;;;;;4991789;28;20056;-63
2024/03/15 05:32:41;;;;;;;6.55;2.20;;;11.30;99.90;;;;;;4992526;28;20509;-63
2024/03/15 05:35:07;;;;;;;3.72;2.00;;;11.30;99.90;;;;;;4992000;28;20153;-63
2024/03/15 05:37:34;;;;;;;3.40;1.45;;;11.20;99.90;;;;;;4994535;28;20054;-63
2024/03/15 05:40:01;;;;;;;5.07;1.83;;;11.20;99.90;;;;;;4984908;28;20096;-63
2024/03/15 05:42:31;;;;;;;2.40;1.65;;;11.20;99.90;;;;;;4999443;28;20062;-63
2024/03/15 05:44:58;;;;;;;1.92;1.52;;;11.20;99.90;;;;;;4995538;28;20065;-63
2024/03/15 05:47:25;;;;;;;2.42;1.58;;;11.20;99.90;;;;;;4992231;28;20096;-63
2024/03/15 05:49:56;;;;;;;3.60;2.05;;;11.10;99.90;;;;;;4988983;28;20438;-63
2024/03/15 05:52:24;;;;;;;3.10;1.45;;;11.10;99.90;;;;;;4989763;28;20077;-63
2024/03/15 05:54:51;;;;;;;3.17;1.70;;;11.10;99.90;;;;;;4991497;28;20047;-63
2024/03/15 05:57:18;;;;;;;4.10;1.70;;;11.20;99.90;;;;;;4992509;28;20132;-62
2024/03/15 05:59:45;;;;;;;3.10;1.85;;;11.10;99.90;;;;;;4989185;28;20050;-63
2024/03/15 06:02:13;;;;;;;4.20;1.92;;;11.20;99.90;;;;;;4990326;28;20081;-63
2024/03/15 06:04:40;;;;;;;3.70;1.90;;;11.20;99.90;;;;;;4988502;28;20317;-63
2024/03/15 06:07:07;;;;;;;2.20;1.55;;;11.20;99.90;;;;;;4995014;28;20045;-62
2024/03/15 06:09:34;;;;;;;7.90;1.92;;;11.10;99.90;;;;;;4991375;28;20082;-63
2024/03/15 06:12:01;;;;;;;6.13;2.25;;;11.20;99.90;;;;;;4992995;28;20045;-63
2024/03/15 06:14:29;;;;;;;4.20;1.70;;;11.20;99.90;;;;;;4991678;28;20145;-63
2024/03/15 06:16:58;;;;;;;4.22;1.60;;;11.20;99.90;;;;;;4996457;28;20158;-63
2024/03/15 06:19:25;;;;;;;5.18;2.65;;;11.30;99.90;;;;;;4995777;28;20057;-63
2024/03/15 06:21:53;;;;;;;5.97;2.35;;;11.40;99.90;;;;;;4991380;28;20082;-63
2024/03/15 06:24:19;;;;;;;5.05;1.90;;;11.40;99.90;;;;;;4990976;28;20450;-63
2024/03/15 06:26:47;;;;;;;8.00;1.70;;;11.40;99.90;;;;;;4989199;28;21604;-63
2024/03/15 06:29:18;;;;;;;2.95;1.33;;;11.50;99.90;;;;;;4993510;28;20072;-63
2024/03/15 06:31:45;;;;;;;3.75;1.90;;;11.50;99.90;;;;;;4998322;28;20085;-63
2024/03/15 06:34:12;;;;;;;7.43;2.58;;;11.60;99.90;;;;;;5001913;28;20052;-63
2024/03/15 06:36:44;;;;;;;5.32;2.00;;;11.60;99.90;;;;;;4989461;28;20125;-63
2024/03/15 06:41:57;;;;;;;3.38;2.00;;;11.80;99.90;;;;;;4992359;28;20051;-63
2024/03/15 06:44:35;;;;;;;2.78;1.52;;;11.80;99.90;;;;;;4990257;28;20051;-63
2024/03/15 06:47:15;;;;;;;5.93;2.00;;;11.80;99.90;;;;;;4991681;28;20046;-63
2024/03/15 06:50:06;;;;;;;5.43;2.10;;;11.90;99.90;;;;;;4992619;28;20072;-63
2024/03/15 06:52:36;;;;;;;2.30;1.50;;;11.90;99.90;;;;;;4988374;28;20129;-63
2024/03/15 06:55:08;;;;;;;4.75;1.85;;;12.00;99.90;;;;;;4989752;28;20108;-63
2024/03/15 06:57:38;;;;;;;3.35;2.08;;;12.00;99.90;;;;;;4989758;28;20133;-64
2024/03/15 07:00:10;;;;;;;4.45;1.83;;;12.00;99.90;;;;;;4990312;28;20046;-64
2024/03/15 07:02:44;;;;;;;3.90;2.00;;;12.00;99.90;;;;;;4986188;28;20155;-63
2024/03/15 07:05:13;;;;;;;3.80;1.90;;;12.00;99.90;;;;;;4992954;28;20054;-63
2024/03/15 07:07:40;;;;;;;3.90;1.85;;;12.00;99.90;;;;;;4996261;28;20058;-63
2024/03/15 07:10:09;;;;;;;6.15;2.00;;;12.00;99.90;;;;;;4990968;28;20048;-62
2024/03/15 07:12:39;;;;;;;3.35;2.35;;;12.00;99.90;;;;;;4997377;28;20047;-61
2024/03/15 07:15:08;;;;;;;3.53;2.70;;;12.10;99.90;;;;;;4993696;28;20049;-61
2024/03/15 07:17:36;;;;;;;3.13;2.13;;;12.10;99.90;;;;;;4992050;28;20391;-61
2024/03/15 07:20:08;;;;;;;3.50;1.80;;;12.10;99.90;;;;;;4992737;28;20077;-62
2024/03/15 07:22:36;;;;;;;4.18;1.88;;;12.20;99.90;;;;;;4992899;28;20045;-63
2024/03/15 07:25:05;;;;;;;3.53;2.00;;;12.30;99.90;;;;;;4992148;28;20422;-63
2024/03/15 07:27:32;;;;;;;2.83;1.77;;;12.30;99.90;;;;;;4991307;28;20080;-63
2024/03/15 07:30:00;;;;;;;3.47;2.10;;;12.40;99.90;;;;;;4988531;28;20494;-60
2024/03/15 07:32:27;;;;;;;4.80;1.95;;;12.40;99.90;;;;;;4989469;28;20183;-61
2024/03/15 07:34:54;;;;;;;2.95;1.73;;;12.40;99.90;;;;;;4989758;28;20074;-61
2024/03/15 07:37:22;;;;;;;4.32;2.22;;;12.50;99.90;;;;;;4988151;28;20082;-61
2024/03/15 07:39:51;;;;;;;4.25;1.90;;;12.60;99.90;;;;;;4996287;28;20623;-61
2024/03/15 07:42:21;;;;;;;3.63;1.90;;;12.70;99.90;;;;;;4999490;28;20141;-61
2024/03/15 07:44:48;;;;;;;3.83;2.17;;;12.90;99.90;;;;;;4990168;28;20056;-61
2024/03/15 07:47:15;;;;;;;3.35;1.73;;;13.00;99.90;;;;;;4994650;28;20046;-62
2024/03/15 07:49:42;;;;;;;6.18;2.35;;;13.10;99.90;;;;;;4994129;28;21436;-61
2024/03/15 07:52:09;;;;;;;4.47;2.00;;;13.10;99.90;;;;;;4991860;28;20614;-63
2024/03/15 07:54:36;;;;;;;4.80;2.25;;;13.00;99.90;;;;;;4987813;28;20494;-60
2024/03/15 07:57:03;;;;;;;6.18;1.80;;;13.10;99.90;;;;;;4997352;28;20045;-60
2024/03/15 07:59:30;;;;;;;3.65;1.88;;;13.30;99.90;;;;;;4992994;28;20062;-62
2024/03/15 08:01:58;;;;;;;8.38;1.92;;;13.30;99.90;;;;;;4989737;28;20133;-62
2024/03/15 08:04:26;;;;;;;3.90;2.28;;;13.30;99.90;;;;;;4995748;28;20046;-61
2024/03/15 08:06:53;;;;;;;5.20;2.17;;;13.30;99.90;;;;;;4989666;28;20083;-62
2024/03/15 08:09:23;;;;;;;4.13;2.25;;;13.50;99.90;;;;;;5000274;28;20454;-59
2024/03/15 08:11:51;;;;;;;8.90;2.45;;;13.60;99.90;;;;;;4993092;28;20414;-64
2024/03/15 08:14:18;;;;;;;5.32;2.25;;;13.60;99.90;;;;;;4987498;28;20111;-61
2024/03/15 08:16:48;;;;;;;6.93;2.33;;;13.60;99.90;;;;;;4993911;28;20054;-63
2024/03/15 08:19:15;;;;;;;4.32;2.10;;;13.60;99.90;;;;;;4993525;28;20075;-60
2024/03/15 08:21:42;;;;;;;5.75;2.20;;;13.70;99.90;;;;;;4989027;28;20054;-59
2024/03/15 08:24:12;;;;;;;7.70;2.30;;;13.70;99.90;;;;;;4987318;28;20050;-61
2024/03/15 08:26:39;;;;;;;3.63;2.20;;;13.80;99.90;;;;;;4987317;28;20173;-63
2024/03/15 08:29:08;;;;;;;8.77;2.85;;;13.90;99.90;;;;;;4988470;28;20590;-62
2024/03/15 08:31:35;;;;;;;4.93;2.45;;;13.90;99.90;;;;;;4994714;28;20161;-62
2024/03/15 08:34:02;;;;;;;10.20;3.97;;;13.90;99.90;;;;;;4995174;28;20050;-62
2024/03/15 08:36:36;;;;;;;3.97;2.20;;;14.00;99.90;;;;;;4995915;28;20141;-62
2024/03/15 08:39:12;;;;;;;4.80;2.13;;;14.30;99.90;;;;;;4999114;28;20049;-61
2024/03/15 08:41:42;;;;;;;4.03;2.03;;;14.60;99.90;;;;;;4995163;28;20081;-62
2024/03/15 08:44:10;;;;;;;5.95;2.25;;;14.60;99.90;;;;;;4998424;28;20128;-62
2024/03/15 08:46:36;;;;;;;6.68;2.40;;;14.80;99.90;;;;;;4994772;28;20577;-62
2024/03/15 08:49:03;;;;;;;5.80;1.70;;;15.20;99.90;;;;;;4998860;28;20537;-62
2024/03/15 08:51:30;;;;;;;4.43;2.03;;;15.10;99.90;;;;;;5000715;28;20447;-62
2024/03/15 08:53:57;;;;;;;5.05;2.50;;;15.00;99.90;;;;;;5005101;28;20049;-62
2024/03/15 08:56:26;;;;;;;4.20;2.15;;;14.90;99.90;;;;;;4993626;28;20112;-62
2024/03/15 08:58:53;;;;;;;7.63;2.33;;;14.90;99.90;;;;;;4996537;28;20058;-62
2024/03/15 09:01:24;;;;;;;3.60;2.38;;;14.90;99.90;;;;;;4991443;28;20061;-59
2024/03/15 09:03:51;;;;;;;5.78;2.20;;;14.90;99.90;;;;;;4990715;28;20482;-62
2024/03/15 09:06:19;;;;;;;6.00;2.50;;;14.90;99.90;;;;;;4992262;28;20423;-61
2024/03/15 09:08:54;;;;;;;4.18;2.50;;;15.00;99.90;;;;;;4994410;28;20053;-60
2024/03/15 09:11:22;;;;;;;5.32;2.28;;;15.00;99.90;;;;;;4999185;28;20042;-62
2024/03/15 09:13:49;;;;;;;4.15;2.10;;;15.10;99.90;;;;;;4993315;28;21295;-63
2024/03/15 09:16:16;;;;;;;4.03;2.17;;;15.20;99.90;;;;;;4996496;28;20081;-63
2024/03/15 09:18:43;;;;;;;5.95;2.28;;;15.10;99.90;;;;;;4997854;28;20050;-63
2024/03/15 09:21:10;;;;;;;5.28;2.30;;;15.10;99.90;;;;;;4990930;28;20073;-62
2024/03/15 09:23:37;;;;;;;6.60;2.50;;;15.40;99.90;;;;;;4988585;28;20137;-63
2024/03/15 09:26:07;;;;;;;3.70;2.35;;;15.80;99.90;;;;;;4996567;28;20478;-61
2024/03/15 09:28:37;;;;;;;6.45;3.08;;;16.10;99.90;;;;;;4994925;28;20073;-62
2024/03/15 09:31:08;;;;;;;3.55;2.30;;;16.30;99.90;;;;;;5001520;28;20070;-64
2024/03/15 09:33:57;;;;;;;4.22;2.15;;;16.40;99.90;;;;;;4993349;28;20197;-63
2024/03/15 09:36:24;;;;;;;5.00;2.45;;;16.50;99.90;;;;;;4995774;28;20042;-63
2024/03/15 09:38:53;;;;;;;8.32;2.28;;;16.30;99.90;;;;;;4992168;28;20049;-63
2024/03/15 09:41:22;;;;;;;4.97;2.40;;;16.40;99.90;;;;;;5000062;28;20413;-62
2024/03/15 09:43:49;;;;;;;7.18;2.53;;;16.50;99.90;;;;;;5001838;28;20574;-64
2024/03/15 09:46:17;;;;;;;6.85;2.20;;;16.50;99.90;;;;;;4994048;28;20411;-62
2024/03/15 09:48:45;;;;;;;4.93;2.47;;;16.60;99.90;;;;;;4990106;28;20076;-63
2024/03/15 09:51:14;;;;;;;5.07;2.05;;;16.70;99.90;;;;;;4994797;28;20132;-64
2024/03/15 09:53:42;;;;;;;6.63;1.98;;;16.50;99.90;;;;;;4997252;28;20061;-64
2024/03/15 09:56:16;;;;;;;5.07;1.65;;;16.40;99.90;;;;;;4997548;28;20489;-64
2024/03/15 09:58:51;;;;;;;4.40;1.70;;;16.30;99.90;;;;;;4993864;28;20058;-63
2024/03/15 10:01:18;;;;;;;3.88;1.70;;;16.30;99.90;;;;;;4993734;28;20105;-64
2024/03/15 10:03:48;;;;;;;5.20;1.80;;;16.40;99.90;;;;;;4988913;28;20046;-64
2024/03/15 10:06:17;;;;;;;2.17;1.52;;;16.20;99.90;;;;;;4995440;28;20042;-63
2024/03/15 10:08:44;;;;;;;2.50;1.38;;;16.20;99.90;;;;;;4996369;28;20053;-63
2024/03/15 10:11:10;;;;;;;3.53;1.83;;;16.20;99.90;;;;;;4987266;28;20046;-62
2024/03/15 10:13:38;;;;;;;4.03;1.35;;;16.10;99.90;;;;;;4990468;28;20097;-63
2024/03/15 10:16:08;;;;;;;5.00;1.65;;;16.10;99.90;;;;;;4994623;28;20046;-62
2024/03/15 10:18:38;;;;;;;3.45;1.65;;;16.10;99.90;;;;;;4996675;28;20457;-64
2024/03/15 10:21:06;;;;;;;3.45;2.00;;;16.30;99.90;;;;;;4993403;28;20452;-64
2024/03/15 10:23:33;;;;;;;4.28;1.73;;;16.30;99.90;;;;;;4989558;28;20046;-64
2024/03/15 10:26:03;;;;;;;3.70;1.80;;;16.40;99.90;;;;;;4990499;28;20050;-63
2024/03/15 10:28:31;;;;;;;4.35;1.63;;;16.20;99.90;;;;;;4990026;28;20073;-65
2024/03/15 10:30:58;;;;;;;4.45;1.77;;;16.10;99.90;;;;;;4991426;28;20046;-63
2024/03/15 10:33:26;;;;;;;7.20;2.10;;;16.10;99.90;;;;;;4988670;28;20498;-63
2024/03/15 10:35:54;;;;;;;4.63;1.70;;;16.10;99.90;;;;;;4990383;28;20097;-63
2024/03/15 10:38:22;;;;;;;3.90;1.63;;;16.00;99.90;;;;;;4992629;28;20487;-63
2024/03/15 10:40:49;;;;;;;6.60;1.70;;;15.80;99.90;;;;;;4993222;28;20121;-63
2024/03/15 10:43:21;;;;;;;5.38;1.70;;;15.90;99.90;;;;;;4985878;28;20046;-64
2024/03/15 10:45:48;;;;;;;5.18;1.65;;;16.20;99.90;;;;;;4996857;28;20494;-62
2024/03/15 10:48:19;;;;;;;3.85;1.77;;;16.50;99.90;;;;;;4987681;28;20049;-63
2024/03/15 10:50:50;;;;;;;3.67;1.83;;;16.60;99.90;;;;;;4994401;28;20046;-63
2024/03/15 10:53:19;;;;;;;1.60;1.30;;;16.70;99.90;;;;;;4996515;28;20507;-63
2024/03/15 10:55:47;;;;;;;3.20;1.35;;;16.60;99.90;;;;;;4995240;28;20089;-63
2024/03/15 10:58:15;;;;;;;4.60;1.42;;;16.80;99.90;;;;;;4995097;28;20057;-63
2024/03/15 11:00:42;;;;;;;3.88;1.70;;;16.80;99.90;;;;;;4992054;28;20058;-62
2024/03/15 11:03:15;;;;;;;4.50;1.98;;;16.80;99.90;;;;;;4995980;28;20129;-63
2024/03/15 11:05:42;;;;;;;2.78;1.30;;;16.90;99.90;;;;;;4991478;28;20046;-63
2024/03/15 11:08:14;;;;;;;3.22;1.50;;;17.10;99.90;;;;;;4990704;28;20049;-63
2024/03/15 11:10:53;;;;;;;3.53;1.48;;;17.10;99.90;;;;;;4992196;28;20047;-63
2024/03/15 11:13:25;;;;;;;3.05;1.20;;;17.50;99.90;;;;;;4990635;28;20107;-63
2024/03/15 11:15:58;;;;;;;9.18;1.60;;;17.50;99.90;;;;;;4975322;28;20132;-63
2024/03/15 11:18:34;;;;;;;4.35;1.38;;;17.50;99.90;;;;;;4973452;28;20042;-63
2024/03/15 11:21:01;;;;;;;4.30;1.60;;;17.30;99.90;;;;;;4972333;28;20042;-63
2024/03/15 11:23:28;;;;;;;4.20;1.70;;;17.10;99.90;;;;;;4973922;28;20446;-63
2024/03/15 11:26:08;;;;;;;3.90;1.25;;;16.90;99.90;;;;;;4974960;28;20046;-63
2024/03/15 11:28:37;;;;;;;2.28;1.48;;;16.50;99.90;;;;;;4971433;28;20523;-63
2024/03/15 11:31:16;;;;;;;3.88;1.67;;;16.30;99.90;;;;;;4977395;28;20054;-63
2024/03/15 11:33:43;;;;;;;3.65;1.40;;;16.20;99.90;;;;;;4976704;28;20566;-64
2024/03/15 11:36:11;;;;;;;3.47;1.60;;;16.30;99.90;;;;;;4985228;28;20065;-63
2024/03/15 11:38:45;;;;;;;7.45;1.77;;;16.50;99.90;;;;;;4978428;28;20699;-63
2024/03/15 11:41:12;;;;;;;2.90;1.60;;;16.60;99.90;;;;;;4977724;28;20510;-63
2024/03/15 11:43:39;;;;;;;4.90;1.70;;;16.70;99.90;;;;;;4977156;28;20066;-63
2024/03/15 11:46:08;;;;;;;5.43;1.70;;;16.80;99.90;;;;;;4979345;28;20054;-63
2024/03/15 11:48:35;;;;;;;2.88;1.42;;;16.70;99.90;;;;;;4971974;28;20507;-64
2024/03/15 11:51:02;;;;;;;4.30;1.42;;;16.60;99.90;;;;;;4975517;28;20126;-65
2024/03/15 11:53:32;;;;;;;3.95;1.25;;;16.60;99.90;;;;;;4976128;28;20082;-65
2024/03/15 11:56:00;;;;;;;6.32;1.80;;;16.70;99.90;;;;;;4974231;28;20105;-63
2024/03/15 11:58:27;;;;;;;2.78;1.05;;;16.90;99.90;;;;;;4976447;28;20065;-64
2024/03/15 12:00:54;;;;;;;2.17;1.20;;;17.10;99.90;;;;;;4976666;28;20046;-64
2024/03/15 12:03:25;;;;;;;3.60;1.20;;;17.20;99.90;;;;;;4971995;28;20046;-64
2024/03/15 12:05:54;;;;;;;6.15;1.35;;;17.30;99.90;;;;;;4974616;28;20610;-64
2024/03/15 12:08:22;;;;;;;1.85;0.88;;;17.20;99.90;;;;;;4980400;28;20482;-65
2024/03/15 12:10:51;;;;;;;3.47;1.08;;;17.10;99.90;;;;;;4972476;28;20125;-65
2024/03/15 12:13:31;;;;;;;3.92;1.20;;;17.10;99.90;;;;;;4975238;28;20047;-65
2024/03/15 12:16:00;;;;;;;2.60;0.80;;;16.90;99.90;;;;;;4974760;28;20050;-64
2024/03/15 12:18:28;;;;;;;2.58;1.02;;;17.00;99.90;;;;;;4978560;28;20047;-65
2024/03/15 12:20:55;;;;;;;3.33;1.27;;;17.20;99.90;;;;;;4970911;28;20141;-65
2024/03/15 12:23:23;;;;;;;4.53;1.55;;;17.50;99.90;;;;;;4973264;28;20066;-66
2024/03/15 12:25:51;;;;;;;3.08;1.15;;;17.50;99.90;;;;;;4980005;28;20058;-65
2024/03/15 12:28:20;;;;;;;3.20;1.27;;;17.40;99.90;;;;;;4980059;28;20054;-65
2024/03/15 12:30:51;;;;;;;3.33;1.17;;;17.60;99.90;;;;;;5030911;23;20041;-66
2024/03/15 12:33:18;;;;;;;2.53;0.90;;;17.80;99.90;;;;;;5049490;28;20555;-65
2024/03/15 12:35:48;;;;;;;1.77;1.00;;;17.80;99.90;;;;;;5044234;28;20053;-67
2024/03/15 12:38:21;;;;;;;3.25;0.90;;;17.70;99.90;;;;;;5047660;28;20079;-66
2024/03/15 12:40:49;;;;;;;6.82;1.02;;;17.80;99.90;;;;;;5068726;28;20044;-66
2024/03/15 12:43:15;;;;;;;3.47;1.17;;;17.70;99.90;;;;;;5061216;28;20049;-66
2024/03/15 12:45:42;;;;;;;5.43;1.02;;;17.70;99.90;;;;;;5066655;28;20048;-66
2024/03/15 12:48:10;;;;;;;2.83;0.90;;;17.60;99.90;;;;;;5066728;28;20532;-66
2024/03/15 12:50:38;;;;;;;4.40;1.00;;;17.60;99.90;;;;;;5050808;28;20040;-67
2024/03/15 12:53:09;;;;;;;6.35;1.35;;;17.60;99.90;;;;;;5062069;28;20041;-67
2024/03/15 12:55:36;;;;;;;2.33;0.98;;;17.60;99.90;;;;;;5047767;28;20455;-66